createdAt,value
2019-05-17T00:00:00.532Z,11.34
2019-05-17T00:02:29.351Z,11.25
2019-05-17T00:05:00.306Z,11.20
2019-05-17T00:07:29.152Z,11.27
2019-05-17T00:09:57.996Z,11.26
2019-05-17T00:12:27.859Z,11.23
2019-05-17T00:14:58.757Z,11.25
2019-05-17T00:17:27.577Z,11.27
2019-05-17T00:19:57.496Z,11.24
2019-05-17T00:22:27.426Z,11.26
2019-05-17T00:24:56.818Z,11.27
2019-05-17T00:27:26.560Z,11.25
2019-05-17T00:29:57.093Z,11.22
2019-05-17T00:32:27.289Z,11.26
2019-05-17T00:34:56.283Z,11.27
2019-05-17T00:37:23.322Z,11.29
2019-05-17T00:39:52.794Z,11.31
2019-05-17T00:42:21.668Z,11.27
2019-05-17T00:44:50.519Z,11.22
2019-05-17T00:47:19.525Z,11.24
2019-05-17T00:49:48.347Z,11.22
2019-05-17T00:52:17.252Z,11.24
2019-05-17T00:54:46.903Z,11.19
2019-05-17T00:57:16.610Z,11.23
2019-05-17T00:59:47.603Z,11.26
2019-05-17T01:02:16.356Z,11.31
2019-05-17T01:04:43.342Z,11.30
2019-05-17T01:07:12.239Z,11.31
2019-05-17T01:09:42.475Z,11.31
2019-05-17T01:12:11.424Z,11.22
2019-05-17T01:14:40.560Z,11.16
2019-05-17T01:17:09.408Z,11.21
2019-05-17T01:19:38.895Z,11.20
2019-05-17T01:22:09.443Z,11.21
2019-05-17T01:24:38.477Z,11.19
2019-05-17T01:27:07.267Z,11.16
2019-05-17T01:29:36.753Z,11.11
2019-05-17T01:32:06.804Z,11.08
2019-05-17T01:34:34.547Z,11.06
2019-05-17T01:37:03.402Z,11.07
2019-05-17T01:39:33.605Z,11.00
2019-05-17T01:42:01.030Z,10.98
2019-05-17T01:44:29.855Z,11.01
2019-05-17T01:46:58.678Z,10.97
2019-05-17T01:49:27.485Z,10.99
2019-05-17T01:51:56.879Z,10.96
2019-05-17T01:54:26.882Z,10.96
2019-05-17T01:56:56.674Z,10.89
2019-05-17T01:59:26.643Z,10.86
2019-05-17T02:01:56.523Z,10.83
2019-05-17T02:04:26.667Z,10.74
2019-05-17T02:06:53.205Z,10.72
2019-05-17T02:09:37.193Z,10.72
2019-05-17T02:11:57.061Z,10.71
2019-05-17T02:14:26.713Z,10.69
2019-05-17T02:16:53.950Z,10.68
2019-05-17T02:19:22.763Z,10.66
2019-05-17T02:21:52.239Z,10.61
2019-05-17T02:24:21.066Z,10.56
2019-05-17T02:26:49.893Z,10.49
2019-05-17T02:29:21.365Z,10.43
2019-05-17T02:31:48.163Z,10.37
2019-05-17T02:34:17.021Z,10.33
2019-05-17T02:36:45.818Z,10.27
2019-05-17T02:39:15.266Z,10.22
2019-05-17T02:41:44.108Z,10.22
2019-05-17T02:44:13.627Z,10.22
2019-05-17T02:46:43.299Z,10.23
2019-05-17T02:49:13.734Z,10.21
2019-05-17T02:51:43.125Z,10.22
2019-05-17T02:54:13.003Z,10.22
2019-05-17T02:56:38.851Z,10.25
2019-05-17T02:59:13.126Z,10.26
2019-05-17T03:01:39.822Z,10.28
2019-05-17T03:04:08.713Z,10.24
2019-05-17T03:06:37.558Z,10.23
2019-05-17T03:09:06.805Z,10.25
2019-05-17T03:11:35.643Z,10.28
2019-05-17T03:14:04.495Z,10.33
2019-05-17T03:16:33.979Z,10.34
2019-05-17T03:19:04.209Z,10.34
2019-05-17T03:21:33.752Z,10.36
2019-05-17T03:24:03.128Z,10.31
2019-05-17T03:26:32.788Z,10.34
2019-05-17T03:29:03.347Z,10.35
2019-05-17T03:31:35.960Z,10.39
2019-05-17T03:33:57.850Z,10.39
2019-05-17T03:36:26.975Z,10.38
2019-05-17T03:38:55.731Z,10.41
2019-05-17T03:41:28.915Z,10.39
2019-05-17T03:43:53.531Z,10.40
2019-05-17T03:46:23.277Z,10.42
2019-05-17T03:48:53.187Z,10.37
2019-05-17T03:51:23.117Z,10.38
2019-05-17T03:53:53.159Z,10.33
2019-05-17T03:56:22.197Z,10.36
2019-05-17T03:58:48.754Z,10.37
2019-05-17T04:01:17.637Z,10.41
2019-05-17T04:03:46.484Z,10.47
2019-05-17T04:06:15.322Z,10.49
2019-05-17T04:08:44.993Z,10.53
2019-05-17T04:11:25.723Z,10.51
2019-05-17T04:13:43.472Z,10.49
2019-05-17T04:16:13.992Z,10.50
2019-05-17T04:18:43.654Z,10.56
2019-05-17T04:21:12.533Z,10.59
2019-05-17T04:23:42.743Z,10.63
2019-05-17T04:26:08.960Z,10.67
2019-05-17T04:28:37.794Z,10.73
2019-05-17T04:31:06.666Z,10.73
2019-05-17T04:33:36.820Z,10.78
2019-05-17T04:36:06.124Z,10.77
2019-05-17T04:38:35.739Z,10.84
2019-05-17T04:41:04.567Z,10.89
2019-05-17T04:43:33.960Z,10.91
2019-05-17T04:46:03.188Z,10.92
2019-05-17T04:48:32.654Z,10.95
2019-05-17T04:51:02.479Z,10.86
2019-05-17T04:53:32.804Z,10.83
2019-05-17T04:55:59.250Z,10.89
2019-05-17T04:58:28.098Z,10.90
2019-05-17T05:00:58.491Z,11.05
2019-05-17T05:03:27.314Z,11.09
2019-05-17T05:05:56.296Z,11.24
2019-05-17T05:08:26.235Z,11.44
2019-05-17T05:10:55.079Z,11.68
2019-05-17T05:13:23.894Z,12.25
2019-05-17T05:15:55.597Z,12.88
2019-05-17T05:18:24.499Z,13.97
2019-05-17T05:20:53.412Z,15.30
2019-05-17T05:23:23.880Z,16.39
2019-05-17T05:25:52.244Z,17.77
2019-05-17T05:28:22.365Z,18.34
2019-05-17T05:30:49.048Z,18.47
2019-05-17T05:33:18.907Z,19.42
2019-05-17T05:35:47.760Z,19.01
2019-05-17T05:38:17.550Z,19.18
2019-05-17T05:40:46.934Z,18.51
2019-05-17T05:43:15.764Z,19.21
2019-05-17T05:45:44.614Z,21.36
2019-05-17T05:48:13.459Z,22.09
2019-05-17T05:50:43.606Z,22.76
2019-05-17T05:53:13.403Z,22.71
2019-05-17T05:55:43.433Z,22.82
2019-05-17T05:58:12.353Z,23.86
2019-05-17T06:00:42.739Z,25.10
2019-05-17T06:03:12.066Z,25.56
2019-05-17T06:05:41.947Z,25.00
2019-05-17T06:08:08.147Z,24.18
2019-05-17T06:10:39.424Z,23.15
2019-05-17T06:13:05.877Z,21.93
2019-05-17T06:15:35.343Z,19.33
2019-05-17T06:18:04.217Z,18.58
2019-05-17T06:20:33.046Z,18.06
2019-05-17T06:23:02.578Z,17.90
2019-05-17T06:25:33.801Z,17.61
2019-05-17T06:28:01.422Z,17.46
2019-05-17T06:30:28.788Z,17.11
2019-05-17T06:32:57.621Z,16.67
2019-05-17T06:35:27.095Z,16.37
2019-05-17T06:37:55.907Z,15.82
2019-05-17T06:40:24.735Z,15.17
2019-05-17T06:42:56.203Z,15.02
2019-05-17T06:45:25.012Z,14.96
2019-05-17T06:47:54.108Z,15.36
2019-05-17T06:50:23.638Z,15.82
2019-05-17T06:52:53.205Z,16.07
2019-05-17T06:55:20.767Z,16.26
2019-05-17T06:57:52.668Z,16.01
2019-05-17T07:00:23.585Z,15.97
2019-05-17T07:02:49.808Z,16.07
2019-05-17T07:05:20.090Z,16.20
2019-05-17T07:07:49.819Z,16.02
2019-05-17T07:10:19.479Z,16.01
2019-05-17T07:12:57.686Z,16.03
2019-05-17T07:15:19.716Z,15.80
2019-05-17T07:17:46.528Z,15.52
2019-05-17T07:20:16.535Z,15.51
2019-05-17T07:22:45.360Z,15.47
2019-05-17T07:25:14.253Z,15.65
2019-05-17T07:27:45.832Z,15.46
2019-05-17T07:30:12.465Z,15.01
2019-05-17T07:32:41.853Z,14.78
2019-05-17T07:35:11.230Z,14.55
2019-05-17T07:37:40.870Z,14.40
2019-05-17T07:40:11.716Z,14.55
2019-05-17T07:42:40.753Z,14.59
2019-05-17T07:45:10.454Z,14.35
2019-05-17T07:47:40.351Z,14.49
2019-05-17T07:50:11.494Z,14.87
2019-05-17T07:52:39.847Z,15.01
2019-05-17T07:55:10.726Z,15.23
2019-05-17T07:57:40.610Z,15.72
2019-05-17T08:00:07.032Z,15.70
2019-05-17T08:02:35.863Z,15.57
2019-05-17T08:05:04.830Z,15.36
2019-05-17T08:07:34.195Z,15.15
2019-05-17T08:10:03.053Z,15.23
2019-05-17T08:12:33.676Z,15.11
2019-05-17T08:15:02.484Z,15.01
2019-05-17T08:17:32.522Z,14.86
2019-05-17T08:20:01.394Z,14.86
2019-05-17T08:22:31.966Z,14.59
2019-05-17T08:25:00.795Z,14.40
2019-05-17T08:27:29.913Z,14.52
2019-05-17T08:29:59.774Z,14.63
2019-05-17T08:32:31.381Z,14.59
2019-05-17T08:35:00.126Z,14.70
2019-05-17T08:37:26.214Z,14.63
2019-05-17T08:39:55.019Z,14.67
2019-05-17T08:42:23.839Z,14.56
2019-05-17T08:44:52.745Z,14.36
2019-05-17T08:47:21.549Z,14.08
2019-05-17T08:49:50.403Z,14.06
2019-05-17T08:52:20.061Z,14.16
2019-05-17T08:54:49.613Z,14.37
2019-05-17T08:57:20.562Z,14.31
2019-05-17T08:59:49.598Z,14.10
2019-05-17T09:02:16.187Z,13.96
2019-05-17T09:04:45.154Z,13.98
2019-05-17T09:07:14.087Z,13.88
2019-05-17T09:09:44.460Z,13.91
2019-05-17T09:12:13.267Z,13.93
2019-05-17T09:14:42.256Z,13.89
2019-05-17T09:17:11.153Z,13.96
2019-05-17T09:19:40.080Z,14.36
2019-05-17T09:22:10.499Z,14.67
2019-05-17T09:24:39.657Z,14.59
2019-05-17T09:27:06.478Z,14.47
2019-05-17T09:29:40.502Z,14.44
2019-05-17T09:32:09.591Z,14.46
2019-05-17T09:34:40.262Z,14.40
2019-05-17T09:37:09.737Z,14.43
2019-05-17T09:39:37.239Z,14.42
2019-05-17T09:42:10.417Z,14.37
2019-05-17T09:44:40.537Z,14.55
2019-05-17T09:47:10.648Z,14.54
2019-05-17T09:49:39.613Z,14.42
2019-05-17T09:52:09.604Z,14.29
2019-05-17T09:54:44.826Z,14.28
2019-05-17T09:57:09.759Z,14.40
2019-05-17T09:59:36.435Z,14.78
2019-05-17T10:02:05.239Z,15.17
2019-05-17T10:04:35.039Z,15.39
2019-05-17T10:07:03.943Z,15.45
2019-05-17T10:09:33.309Z,15.45
2019-05-17T10:12:02.948Z,15.17
2019-05-17T10:14:33.734Z,15.08
2019-05-17T10:17:02.735Z,14.92
2019-05-17T10:19:31.963Z,14.81
2019-05-17T10:22:01.427Z,14.67
2019-05-17T10:24:38.016Z,14.55
2019-05-17T10:27:00.755Z,14.56
2019-05-17T10:29:29.976Z,14.67
2019-05-17T10:31:59.922Z,14.55
2019-05-17T10:34:29.410Z,14.46
2019-05-17T10:36:57.871Z,14.44
2019-05-17T10:39:29.676Z,14.58
2019-05-17T10:41:57.085Z,14.71
2019-05-17T10:44:38.878Z,14.67
2019-05-17T10:46:54.731Z,14.48
2019-05-17T10:49:24.351Z,14.33
2019-05-17T10:51:53.169Z,14.35
2019-05-17T10:54:22.596Z,14.40
2019-05-17T10:56:51.394Z,14.48
2019-05-17T10:59:20.357Z,14.53
2019-05-17T11:01:53.107Z,14.72
2019-05-17T11:04:22.655Z,14.81
2019-05-17T11:06:51.551Z,14.60
2019-05-17T11:09:20.723Z,14.73
2019-05-17T11:11:51.961Z,14.97
2019-05-17T11:14:20.914Z,15.08
2019-05-17T11:16:50.084Z,15.33
2019-05-17T11:19:19.034Z,15.34
2019-05-17T11:21:47.857Z,15.61
2019-05-17T11:24:17.864Z,15.95
2019-05-17T11:26:46.675Z,15.99
2019-05-17T11:29:15.477Z,16.13
2019-05-17T11:31:45.500Z,16.29
2019-05-17T11:34:14.824Z,16.11
2019-05-17T11:36:45.656Z,16.17
2019-05-17T11:39:15.796Z,16.41
2019-05-17T11:41:45.627Z,16.34
2019-05-17T11:44:16.458Z,16.40
2019-05-17T11:46:48.207Z,16.41
2019-05-17T11:49:17.083Z,16.09
2019-05-17T11:51:45.857Z,15.91
2019-05-17T11:54:16.405Z,16.13
2019-05-17T11:56:45.429Z,16.20
2019-05-17T11:59:14.825Z,16.33
2019-05-17T12:01:44.930Z,16.28
2019-05-17T12:04:14.389Z,16.24
2019-05-17T12:06:44.327Z,16.40
2019-05-17T12:09:13.155Z,16.75
2019-05-17T12:11:42.633Z,16.68
2019-05-17T12:14:11.450Z,17.03
2019-05-17T12:16:41.318Z,17.38
2019-05-17T12:19:11.670Z,17.43
2019-05-17T12:21:41.584Z,17.54
2019-05-17T12:24:10.390Z,17.38
2019-05-17T12:26:39.246Z,16.92
2019-05-17T12:29:08.899Z,16.80
2019-05-17T12:31:38.396Z,16.96
2019-05-17T12:34:07.192Z,16.94
2019-05-17T12:36:36.029Z,16.83
2019-05-17T12:39:06.340Z,16.54
2019-05-17T12:41:35.758Z,16.30
2019-05-17T12:44:04.572Z,16.04
2019-05-17T12:46:35.044Z,16.02
2019-05-17T12:49:04.645Z,15.95
2019-05-17T12:51:34.089Z,15.93
2019-05-17T12:54:02.904Z,15.84
2019-05-17T12:56:31.958Z,15.81
2019-05-17T12:59:01.075Z,15.86
2019-05-17T13:01:30.921Z,15.94
2019-05-17T13:03:59.910Z,15.88
2019-05-17T13:06:29.131Z,15.88
2019-05-17T13:08:58.834Z,16.03
2019-05-17T13:11:28.107Z,16.23
2019-05-17T13:13:56.930Z,16.23
2019-05-17T13:16:25.998Z,15.89
2019-05-17T13:18:54.838Z,15.75
2019-05-17T13:21:24.470Z,15.67
2019-05-17T13:23:53.887Z,15.72
2019-05-17T13:26:23.113Z,15.65
2019-05-17T13:28:52.604Z,15.45
2019-05-17T13:31:21.443Z,15.45
2019-05-17T13:33:51.325Z,15.50
2019-05-17T13:36:20.404Z,15.49
2019-05-17T13:38:49.226Z,15.40
2019-05-17T13:41:19.039Z,15.35
2019-05-17T13:43:47.836Z,15.27
2019-05-17T13:46:30.715Z,15.15
2019-05-17T13:48:46.422Z,15.21
2019-05-17T13:51:16.096Z,15.31
2019-05-17T13:53:45.093Z,15.16
2019-05-17T13:56:13.867Z,15.14
2019-05-17T13:58:42.733Z,15.23
2019-05-17T14:01:11.639Z,15.22
2019-05-17T14:03:40.618Z,15.08
2019-05-17T14:06:09.531Z,14.97
2019-05-17T14:08:41.608Z,15.08
2019-05-17T14:11:11.278Z,15.23
2019-05-17T14:13:40.797Z,15.38
2019-05-17T14:16:10.261Z,15.48
2019-05-17T14:18:39.151Z,15.57
2019-05-17T14:21:08.008Z,15.67
2019-05-17T14:23:37.138Z,15.52
2019-05-17T14:26:06.264Z,15.58
2019-05-17T14:28:35.153Z,15.65
2019-05-17T14:31:04.079Z,15.67
2019-05-17T14:33:33.588Z,15.66
2019-05-17T14:36:02.453Z,15.69
2019-05-17T14:38:33.230Z,15.57
2019-05-17T14:41:07.900Z,15.47
2019-05-17T14:43:31.759Z,15.37
2019-05-17T14:45:59.777Z,15.41
2019-05-17T14:48:28.714Z,15.52
2019-05-17T14:50:58.087Z,15.48
2019-05-17T14:53:27.831Z,15.18
2019-05-17T14:55:56.693Z,15.06
2019-05-17T14:58:25.555Z,15.11
2019-05-17T15:00:54.426Z,15.32
2019-05-17T15:03:24.767Z,15.38
2019-05-17T15:05:53.700Z,15.29
2019-05-17T15:08:22.801Z,15.20
2019-05-17T15:10:51.629Z,15.13
2019-05-17T15:13:21.122Z,15.06
2019-05-17T15:15:50.859Z,15.10
2019-05-17T15:18:20.323Z,15.13
2019-05-17T15:20:49.236Z,15.14
2019-05-17T15:23:18.084Z,15.14
2019-05-17T15:25:46.915Z,15.24
2019-05-17T15:28:15.941Z,15.23
2019-05-17T15:30:46.412Z,15.30
2019-05-17T15:33:15.208Z,15.33
2019-05-17T15:35:44.130Z,15.33
2019-05-17T15:38:12.937Z,15.18
2019-05-17T15:40:41.860Z,15.16
2019-05-17T15:43:10.787Z,15.21
2019-05-17T15:45:39.640Z,15.24
2019-05-17T15:48:09.141Z,15.26
2019-05-17T15:50:38.303Z,15.21
2019-05-17T15:53:07.171Z,15.23
2019-05-17T15:55:36.007Z,15.18
2019-05-17T15:58:07.958Z,15.23
2019-05-17T16:00:37.531Z,15.25
2019-05-17T16:03:07.106Z,15.11
2019-05-17T16:05:36.744Z,14.93
2019-05-17T16:08:05.736Z,14.82
2019-05-17T16:10:34.544Z,14.66
2019-05-17T16:13:03.729Z,14.50
2019-05-17T16:15:32.194Z,14.50
2019-05-17T16:18:01.119Z,14.44
2019-05-17T16:20:30.468Z,14.53
2019-05-17T16:23:01.233Z,14.36
2019-05-17T16:25:30.071Z,14.35
2019-05-17T16:27:58.978Z,14.29
2019-05-17T16:30:27.854Z,14.22
2019-05-17T16:32:56.666Z,14.14
2019-05-17T16:35:26.069Z,14.02
2019-05-17T16:37:57.458Z,14.03
2019-05-17T16:40:26.804Z,13.98
2019-05-17T16:42:55.651Z,13.97
2019-05-17T16:45:26.013Z,14.02
2019-05-17T16:47:54.837Z,14.07
2019-05-17T16:50:23.983Z,13.96
2019-05-17T16:53:05.024Z,13.86
2019-05-17T16:55:22.044Z,13.82
2019-05-17T16:57:52.727Z,13.82
2019-05-17T17:00:26.000Z,13.79
2019-05-17T17:02:57.831Z,13.76
2019-05-17T17:05:28.181Z,13.72
2019-05-17T17:07:57.676Z,13.73
2019-05-17T17:10:26.623Z,13.70
2019-05-17T17:12:56.714Z,13.61
2019-05-17T17:15:26.258Z,13.51
2019-05-17T17:17:55.178Z,13.50
2019-05-17T17:20:24.814Z,13.44
2019-05-17T17:22:53.988Z,13.38
2019-05-17T17:25:22.969Z,13.35
2019-05-17T17:27:55.018Z,13.40
2019-05-17T17:30:23.963Z,13.37
2019-05-17T17:32:52.895Z,13.30
2019-05-17T17:35:22.329Z,13.24
2019-05-17T17:37:51.906Z,13.19
2019-05-17T17:40:20.992Z,13.12
2019-05-17T17:42:50.179Z,13.12
2019-05-17T17:45:19.203Z,13.17
2019-05-17T17:47:48.314Z,13.19
2019-05-17T17:50:17.768Z,13.13
2019-05-17T17:52:47.343Z,13.14
2019-05-17T17:55:17.127Z,13.10
2019-05-17T17:57:46.644Z,13.11
2019-05-17T18:00:16.254Z,13.14
2019-05-17T18:02:46.865Z,13.13
2019-05-17T18:05:16.691Z,13.09
2019-05-17T18:07:46.068Z,13.12
2019-05-17T18:10:24.642Z,13.15
2019-05-17T18:12:53.604Z,13.20
2019-05-17T18:15:26.883Z,13.28
2019-05-17T18:17:57.610Z,13.30
2019-05-17T18:20:27.232Z,13.23
2019-05-17T18:22:56.616Z,13.24
2019-05-17T18:25:27.798Z,13.26
2019-05-17T18:27:57.865Z,13.23
2019-05-17T18:30:26.783Z,13.17
2019-05-17T18:32:57.134Z,13.17
2019-05-17T18:35:25.976Z,13.16
2019-05-17T18:37:55.170Z,13.17
2019-05-17T18:40:24.877Z,13.20
2019-05-17T18:42:54.506Z,13.26
2019-05-17T18:45:23.893Z,13.32
2019-05-17T18:47:53.101Z,13.35
2019-05-17T18:50:23.221Z,13.33
2019-05-17T18:52:52.806Z,13.30
2019-05-17T18:55:22.850Z,13.29
2019-05-17T18:57:52.985Z,13.27
2019-05-17T19:00:22.344Z,13.22
2019-05-17T19:02:53.724Z,13.22
2019-05-17T19:05:24.493Z,13.22
2019-05-17T19:07:53.523Z,13.23
2019-05-17T19:10:23.960Z,13.21
2019-05-17T19:26:36.771Z,13.12
2019-05-17T19:29:05.869Z,13.16
2019-05-17T19:31:34.765Z,13.14
2019-05-17T19:34:03.743Z,13.11
2019-05-17T19:36:32.810Z,13.13
2019-05-17T19:39:01.829Z,13.16
2019-05-17T19:41:30.758Z,13.16
2019-05-17T19:44:01.050Z,13.14
2019-05-17T19:46:31.695Z,13.13
2019-05-17T19:49:00.793Z,13.15
2019-05-17T19:51:30.580Z,13.13
2019-05-17T19:53:59.447Z,13.14
2019-05-17T19:56:32.405Z,13.15
2019-05-17T19:59:05.748Z,13.15
2019-05-17T20:01:34.695Z,13.13
2019-05-17T20:04:07.724Z,13.13
2019-05-17T20:06:36.565Z,13.12
2019-05-17T20:09:08.396Z,13.08
2019-05-17T20:11:37.916Z,13.06
2019-05-17T20:14:08.440Z,13.08
2019-05-17T20:16:38.103Z,13.13
2019-05-17T20:19:08.443Z,13.14
2019-05-17T20:21:39.073Z,13.10
2019-05-17T20:24:08.855Z,13.06
2019-05-17T20:26:38.464Z,13.08
2019-05-17T20:29:42.992Z,13.14
2019-05-17T20:32:13.121Z,13.18
2019-05-17T20:34:42.301Z,13.22
2019-05-17T20:37:11.992Z,13.26
2019-05-17T20:39:41.920Z,13.29
2019-05-17T20:42:11.993Z,13.31
2019-05-17T20:44:41.618Z,13.30
2019-05-17T20:47:11.155Z,13.27
2019-05-17T20:49:43.092Z,13.21
2019-05-17T20:52:12.903Z,13.14
2019-05-17T20:54:43.716Z,13.11
2019-05-17T20:57:13.463Z,13.07
2019-05-17T20:59:42.338Z,13.05
2019-05-17T21:02:12.760Z,13.05
2019-05-17T21:04:41.641Z,13.06
2019-05-17T21:07:10.588Z,13.00
2019-05-17T21:09:39.613Z,12.99
2019-05-17T21:12:09.020Z,13.01
2019-05-17T21:14:38.016Z,13.05
2019-05-17T21:17:07.448Z,13.07
2019-05-17T21:19:36.874Z,13.09
2019-05-17T21:22:05.838Z,13.06
2019-05-17T21:24:35.719Z,13.00
2019-05-17T21:27:04.660Z,12.95
2019-05-17T21:29:33.566Z,12.90
2019-05-17T21:32:03.436Z,12.84
2019-05-17T21:34:33.654Z,12.81
2019-05-17T21:37:04.044Z,12.79
2019-05-17T21:39:32.857Z,12.81
2019-05-17T21:42:02.334Z,12.86
2019-05-17T21:44:31.950Z,12.90
2019-05-17T21:47:04.748Z,12.91
2019-05-17T21:49:31.052Z,12.86
2019-05-17T21:52:00.964Z,12.80
2019-05-17T21:54:30.266Z,12.79
2019-05-17T21:57:00.108Z,12.80
2019-05-17T21:59:29.632Z,12.83
2019-05-17T22:01:58.610Z,12.85
2019-05-17T22:04:27.517Z,12.83
2019-05-17T22:06:56.828Z,12.80
2019-05-17T22:09:27.157Z,12.79
2019-05-17T22:11:58.630Z,12.78
2019-05-17T22:14:27.590Z,12.80
2019-05-17T22:16:57.006Z,12.82
2019-05-17T22:19:27.561Z,12.84
2019-05-17T22:21:56.871Z,12.82
2019-05-17T22:24:26.799Z,12.81
2019-05-17T22:26:55.588Z,12.81
2019-05-17T22:29:24.436Z,12.82
2019-05-17T22:31:53.572Z,12.79
2019-05-17T22:34:22.427Z,12.74
2019-05-17T22:36:51.244Z,12.75
2019-05-17T22:39:20.674Z,12.74
2019-05-17T22:41:49.767Z,12.73
2019-05-17T22:44:18.584Z,12.73
2019-05-17T22:49:22.477Z,12.72
2019-05-17T22:51:51.361Z,12.69
2019-05-17T22:54:20.202Z,12.67
2019-05-17T22:56:51.236Z,12.64
2019-05-17T22:59:21.371Z,12.58
2019-05-17T23:01:51.630Z,12.55
2019-05-17T23:04:21.075Z,12.52
2019-05-17T23:06:49.898Z,12.55
2019-05-17T23:09:19.313Z,12.56
2019-05-17T23:11:48.266Z,12.56
2019-05-17T23:14:17.157Z,12.54
2019-05-17T23:16:51.619Z,12.56
2019-05-17T23:19:14.836Z,12.51
2019-05-17T23:21:44.306Z,12.53
2019-05-17T23:24:13.881Z,12.56
2019-05-17T23:26:42.707Z,12.56
2019-05-17T23:29:12.489Z,12.57
2019-05-17T23:31:41.422Z,12.61
2019-05-17T23:34:10.211Z,12.64
2019-05-17T23:36:39.759Z,12.66
2019-05-17T23:39:08.592Z,12.70
2019-05-17T23:41:38.694Z,12.70
2019-05-17T23:44:08.123Z,12.70
2019-05-17T23:46:38.191Z,12.73
2019-05-17T23:49:13.056Z,12.75
2019-05-17T23:51:42.502Z,12.78
2019-05-17T23:54:12.094Z,12.80
2019-05-17T23:56:41.067Z,12.80
2019-05-17T23:59:10.811Z,12.81
